Time;durP1;ratioP1;P1;durP2;ratioP2;P2;SDS_P1;SDS_P2;PMS_P1;PMS_P2;Temp;Humidity;BMP_temperature;BMP_pressure;BME280_temperature;BME280_humidity;BME280_pressure;Samples;Min_cycle;Max_cycle;Signal;HPM_P1;HPM_P2
2022/02/24 00:01:59;;;;;;;2.95;1.98;;;22.10;61.10;;;;;;4969944;28;96462;-39
2022/02/24 00:04:32;;;;;;;2.50;2.13;;;22.10;60.70;;;;;;4977299;28;98321;-40
2022/02/24 00:07:05;;;;;;;3.78;2.17;;;22.10;60.70;;;;;;4977091;28;97069;-40
2022/02/24 00:09:36;;;;;;;4.43;1.95;;;22.10;60.60;;;;;;4976253;28;96117;-43
2022/02/24 00:12:07;;;;;;;;;;;22.10;60.60;;;;;;4975381;28;95734;-40
2022/02/24 00:14:39;;;;;;;4.22;2.08;;;22.10;61.00;;;;;;4978263;28;96651;-40
2022/02/24 00:17:09;;;;;;;;;;;22.10;61.20;;;;;;4971279;28;95461;-37
2022/02/24 00:19:40;;;;;;;1.93;1.73;;;22.20;61.60;;;;;;4978101;28;95316;-47
2022/02/24 00:22:10;;;;;;;3.35;2.05;;;22.40;61.90;;;;;;4979454;28;96049;-48
2022/02/24 00:24:41;;;;;;;3.58;2.13;;;22.50;62.20;;;;;;4975943;28;96449;-49
2022/02/24 00:27:13;;;;;;;6.07;2.10;;;22.60;62.40;;;;;;4969492;28;95969;-48
2022/02/24 00:29:43;;;;;;;2.47;2.17;;;22.60;62.60;;;;;;4969210;28;95735;-48
2022/02/24 00:32:13;;;;;;;2.63;1.85;;;22.70;62.90;;;;;;4965026;28;95977;-48
2022/02/24 00:34:45;;;;;;;2.42;1.73;;;22.80;63.00;;;;;;4973396;28;96101;-48
2022/02/24 00:37:15;;;;;;;3.60;2.05;;;22.90;63.10;;;;;;4977175;28;95705;-41
2022/02/24 00:39:47;;;;;;;3.45;1.92;;;23.00;63.30;;;;;;4976375;28;95837;-40
2022/02/24 00:42:17;;;;;;;4.75;2.40;;;23.00;63.50;;;;;;4976928;28;96787;-40
2022/02/24 00:44:48;;;;;;;4.78;2.20;;;23.10;63.60;;;;;;4971641;28;96749;-39
2022/02/24 00:47:20;;;;;;;4.07;2.40;;;23.20;63.80;;;;;;4961858;28;96467;-39
2022/02/24 00:49:50;;;;;;;3.67;2.50;;;23.20;64.00;;;;;;4977039;28;95783;-40
2022/02/24 00:52:21;;;;;;;5.25;2.28;;;23.30;62.30;;;;;;4978063;28;96495;-39
2022/02/24 00:54:52;;;;;;;4.20;2.35;;;23.40;64.40;;;;;;4974626;28;96742;-40
2022/02/24 00:57:24;;;;;;;2.25;1.70;;;23.40;64.60;;;;;;4978797;28;95881;-40
2022/02/24 00:59:55;;;;;;;;;;;23.50;64.80;;;;;;4975431;28;96330;-39
2022/02/24 01:02:26;;;;;;;3.80;2.45;;;23.50;64.90;;;;;;4961943;28;97767;-38
2022/02/24 01:04:57;;;;;;;2.75;2.22;;;23.60;65.10;;;;;;4969179;28;97327;-40
2022/02/24 01:07:29;;;;;;;5.45;2.47;;;23.70;65.40;;;;;;4972319;28;96460;-39
2022/02/24 01:09:59;;;;;;;;;;;23.70;65.40;;;;;;4975261;28;95783;-39
2022/02/24 01:12:30;;;;;;;4.35;2.45;;;23.70;65.40;;;;;;4971565;28;96110;-39
2022/02/24 01:15:07;;;;;;;5.30;2.53;;;23.80;65.50;;;;;;4976186;28;97142;-40
2022/02/24 01:17:43;;;;;;;5.75;2.70;;;23.90;65.50;;;;;;4959890;28;95814;-39
2022/02/24 01:20:15;;;;;;;6.22;2.28;;;23.90;65.60;;;;;;4972248;28;95771;-39
2022/02/24 01:22:45;;;;;;;3.03;2.47;;;24.00;65.70;;;;;;4976375;28;96151;-39
2022/02/24 01:25:19;;;;;;;3.70;2.22;;;24.10;65.80;;;;;;4978807;28;96706;-39
2022/02/24 01:27:52;;;;;;;5.60;2.45;;;24.10;65.80;;;;;;4974982;28;97689;-39
2022/02/24 01:30:24;;;;;;;4.55;2.75;;;24.20;65.80;;;;;;4971930;28;95740;-40
2022/02/24 01:32:56;;;;;;;5.20;3.30;;;24.20;65.80;;;;;;4970290;28;95815;-40
2022/02/24 01:35:26;;;;;;;4.00;2.90;;;24.20;66.00;;;;;;4971310;28;97896;-40
2022/02/24 01:37:56;;;;;;;7.00;2.78;;;24.20;66.10;;;;;;4971416;28;96026;-40
2022/02/24 01:40:28;;;;;;;7.97;2.70;;;24.20;66.30;;;;;;4975640;28;96004;-40
2022/02/24 01:42:59;;;;;;;4.85;2.70;;;24.20;66.50;;;;;;4981225;28;95902;-40
2022/02/24 01:45:29;;;;;;;4.45;3.20;;;24.20;66.70;;;;;;4964754;28;96229;-40
2022/02/24 01:48:00;;;;;;;;;;;24.20;66.80;;;;;;4971525;28;98024;-40
2022/02/24 01:50:30;;;;;;;3.58;2.67;;;24.20;67.00;;;;;;4971054;28;96379;-40
2022/02/24 01:53:01;;;;;;;3.85;2.40;;;24.20;67.20;;;;;;4974782;28;96523;-40
2022/02/24 01:55:34;;;;;;;6.78;2.58;;;24.10;67.40;;;;;;4979858;28;97220;-40
2022/02/24 01:58:04;;;;;;;4.28;2.55;;;24.20;67.60;;;;;;4963642;28;96880;-40
2022/02/24 02:00:34;;;;;;;6.18;3.15;;;24.10;66.10;;;;;;4975938;28;95896;-40
2022/02/24 02:03:05;;;;;;;;;;;24.10;67.90;;;;;;4979730;28;95464;-40
2022/02/24 02:05:40;;;;;;;7.60;3.17;;;24.10;68.20;;;;;;4973236;28;96032;-40
2022/02/24 02:08:12;;;;;;;3.60;2.67;;;24.10;68.40;;;;;;4973539;28;96654;-39
2022/02/24 02:10:42;;;;;;;5.63;2.40;;;24.10;68.60;;;;;;4969057;28;96532;-40
2022/02/24 02:13:13;;;;;;;;;;;24.10;68.70;;;;;;4979183;28;96137;-39
2022/02/24 02:15:44;;;;;;;6.50;3.00;;;24.10;69.00;;;;;;4976351;28;97139;-40
2022/02/24 02:18:15;;;;;;;4.13;2.78;;;24.10;69.10;;;;;;4981286;28;96028;-40
2022/02/24 02:20:46;;;;;;;8.88;2.67;;;24.10;69.10;;;;;;4977597;28;95771;-40
2022/02/24 02:23:17;;;;;;;6.40;2.45;;;24.10;69.20;;;;;;4973689;28;95835;-40
2022/02/24 02:25:50;;;;;;;4.95;2.42;;;24.10;69.20;;;;;;4975736;28;96335;-40
2022/02/24 02:28:21;;;;;;;5.97;2.78;;;24.10;69.40;;;;;;4981409;28;96002;-40
2022/02/24 02:30:51;;;;;;;;;;;24.20;69.50;;;;;;4979446;28;96787;-41
2022/02/24 02:33:23;;;;;;;4.18;2.40;;;24.20;69.60;;;;;;4981629;28;97293;-40
2022/02/24 02:35:53;;;;;;;5.25;2.60;;;24.30;69.70;;;;;;4973392;28;96349;-40
2022/02/24 02:38:24;;;;;;;2.38;2.17;;;24.30;69.70;;;;;;4972913;28;97021;-40
2022/02/24 02:40:55;;;;;;;5.10;2.90;;;24.30;69.40;;;;;;4968699;28;95952;-40
2022/02/24 02:43:26;;;;;;;6.60;3.30;;;24.30;69.20;;;;;;4970865;28;95942;-39
2022/02/24 02:45:56;;;;;;;3.20;2.88;;;24.30;68.80;;;;;;4965880;28;96471;-39
2022/02/24 02:48:26;;;;;;;4.43;2.83;;;24.40;68.30;;;;;;4980681;28;96308;-40
2022/02/24 02:50:56;;;;;;;5.33;2.73;;;24.40;67.60;;;;;;4980857;28;95599;-40
2022/02/24 02:53:26;;;;;;;3.80;3.08;;;24.50;66.80;;;;;;4978572;28;95603;-39
2022/02/24 02:55:59;;;;;;;3.80;2.67;;;24.40;65.90;;;;;;4969113;28;97020;-40
2022/02/24 02:58:29;;;;;;;4.95;2.80;;;24.50;65.60;;;;;;4975871;28;97052;-39
2022/02/24 03:00:59;;;;;;;3.28;2.67;;;24.50;64.80;;;;;;4970686;28;96562;-39
2022/02/24 03:03:30;;;;;;;4.55;2.85;;;24.60;64.10;;;;;;4977135;28;97875;-39
2022/02/24 03:06:02;;;;;;;;;;;24.60;63.40;;;;;;4980453;28;97491;-39
2022/02/24 03:08:32;;;;;;;3.10;2.63;;;24.60;62.60;;;;;;4976009;28;95924;-39
2022/02/24 03:11:03;;;;;;;3.90;2.63;;;24.70;61.90;;;;;;4971684;28;95446;-39
2022/02/24 03:13:35;;;;;;;3.35;2.70;;;24.70;62.10;;;;;;4974655;28;95694;-39
2022/02/24 03:16:06;;;;;;;2.72;2.22;;;25.00;59.90;;;;;;4968347;28;96545;-40
2022/02/24 03:18:38;;;;;;;2.97;1.92;;;25.10;61.10;;;;;;4960399;28;99233;-39
2022/02/24 03:21:08;;;;;;;;;;;25.10;60.20;;;;;;4973441;28;96161;-40
2022/02/24 03:23:39;;;;;;;2.55;2.20;;;25.00;59.60;;;;;;4978416;28;96726;-39
2022/02/24 03:26:10;;;;;;;3.35;2.53;;;25.00;59.40;;;;;;4977956;28;96459;-39
2022/02/24 03:28:41;;;;;;;4.38;2.72;;;25.10;59.00;;;;;;4959371;28;95570;-39
2022/02/24 03:31:12;;;;;;;3.38;2.40;;;25.20;58.50;;;;;;4969103;28;95773;-39
2022/02/24 03:33:44;;;;;;;3.55;2.35;;;25.30;57.70;;;;;;4986152;28;95778;-38
2022/02/24 03:36:14;;;;;;;5.75;2.22;;;25.20;57.40;;;;;;4979976;28;96154;-38
2022/02/24 03:38:43;;;;;;;3.35;1.90;;;25.20;57.70;;;;;;4979717;28;95962;-38
2022/02/24 03:41:13;;;;;;;3.33;2.25;;;25.20;57.00;;;;;;4975083;28;96427;-39
2022/02/24 03:43:44;;;;;;;3.17;2.10;;;25.20;56.70;;;;;;4969961;28;95539;-39
2022/02/24 03:46:15;;;;;;;3.05;2.22;;;25.20;57.00;;;;;;4973309;28;97103;-39
2022/02/24 03:48:45;;;;;;;2.42;2.22;;;25.20;56.50;;;;;;4976407;28;96068;-39
2022/02/24 03:51:15;;;;;;;2.15;1.95;;;25.20;56.40;;;;;;4980487;28;95921;-39
2022/02/24 03:53:47;;;;;;;3.28;2.13;;;25.10;56.10;;;;;;4980531;28;95774;-39
2022/02/24 03:56:20;;;;;;;3.42;2.25;;;25.20;56.00;;;;;;4976669;28;96723;-47
2022/02/24 03:58:50;;;;;;;3.70;2.45;;;25.10;55.70;;;;;;4978338;28;95878;-47
2022/02/24 04:01:20;;;;;;;3.83;1.83;;;25.00;55.40;;;;;;4974695;28;95398;-47
2022/02/24 04:03:51;;;;;;;2.53;2.03;;;25.10;55.20;;;;;;4972118;28;96709;-47
2022/02/24 04:06:23;;;;;;;3.80;2.03;;;25.00;54.60;;;;;;4968737;28;96582;-47
2022/02/24 04:08:53;;;;;;;;;;;25.10;55.10;;;;;;4977919;28;95834;-47
2022/02/24 04:11:23;;;;;;;4.40;2.20;;;25.00;54.90;;;;;;4980492;28;96738;-47
2022/02/24 04:13:55;;;;;;;4.63;2.15;;;24.90;54.60;;;;;;4971563;28;96063;-47
2022/02/24 04:16:25;;;;;;;2.80;2.35;;;24.90;54.50;;;;;;4972516;28;97213;-48
2022/02/24 04:18:57;;;;;;;2.97;1.80;;;24.90;54.50;;;;;;4973658;28;96233;-48
2022/02/24 04:21:27;;;;;;;;;;;24.90;54.30;;;;;;4972828;28;95786;-47
2022/02/24 04:23:58;;;;;;;3.67;1.80;;;24.80;54.50;;;;;;4975067;28;95669;-47
2022/02/24 04:26:29;;;;;;;;;;;24.90;54.70;;;;;;4975982;28;97503;-47
2022/02/24 04:29:01;;;;;;;3.33;2.35;;;24.90;54.50;;;;;;4981643;28;97035;-47
2022/02/24 04:31:32;;;;;;;3.63;2.10;;;24.90;55.00;;;;;;4969408;28;96245;-47
2022/02/24 04:34:03;;;;;;;2.72;1.88;;;25.00;54.90;;;;;;4974008;28;96025;-47
2022/02/24 04:36:33;;;;;;;3.22;1.80;;;25.10;54.70;;;;;;4978360;28;96093;-47
2022/02/24 04:39:03;;;;;;;3.42;1.85;;;25.30;54.30;;;;;;4969361;28;96561;-46
2022/02/24 04:41:34;;;;;;;3.45;2.20;;;25.30;54.10;;;;;;4975203;28;95905;-47
2022/02/24 04:44:06;;;;;;;3.88;2.03;;;25.50;53.90;;;;;;4974831;28;96586;-47
2022/02/24 04:46:36;;;;;;;4.55;1.88;;;25.50;53.80;;;;;;4969893;28;96499;-46
2022/02/24 04:49:07;;;;;;;3.40;1.63;;;25.50;53.30;;;;;;4977704;28;95852;-46
2022/02/24 04:51:36;;;;;;;1.90;1.80;;;25.50;53.10;;;;;;4974418;28;97369;-47
2022/02/24 04:54:06;;;;;;;4.88;2.08;;;25.60;52.60;;;;;;4973523;28;95781;-47
2022/02/24 04:56:38;;;;;;;2.83;1.73;;;25.60;52.70;;;;;;4977195;28;97243;-46
2022/02/24 04:59:08;;;;;;;;;;;25.60;53.70;;;;;;4977251;28;96212;-47
2022/02/24 05:01:39;;;;;;;2.30;1.60;;;25.60;53.00;;;;;;4968226;28;96211;-47
2022/02/24 05:04:11;;;;;;;3.95;2.22;;;25.60;52.50;;;;;;4972493;28;98646;-47
2022/02/24 05:06:42;;;;;;;3.03;2.13;;;25.70;52.50;;;;;;4981639;28;96043;-47
2022/02/24 05:09:15;;;;;;;4.15;2.22;;;25.60;52.10;;;;;;4971309;28;95809;-47
2022/02/24 05:11:45;;;;;;;4.97;2.03;;;25.60;52.00;;;;;;4968995;28;95751;-48
2022/02/24 05:14:16;;;;;;;5.72;2.47;;;25.60;51.90;;;;;;4970606;28;96095;-48
2022/02/24 05:16:48;;;;;;;3.50;2.00;;;25.50;52.30;;;;;;4970089;28;96395;-47
2022/02/24 05:19:21;;;;;;;5.22;2.35;;;25.50;53.00;;;;;;4976476;28;96219;-45
2022/02/24 05:21:53;;;;;;;4.32;1.83;;;25.40;53.40;;;;;;4980024;28;95873;-46
2022/02/24 05:24:25;;;;;;;5.97;2.13;;;25.40;53.10;;;;;;4978307;28;96912;-45
2022/02/24 05:26:57;;;;;;;3.88;1.85;;;25.30;53.00;;;;;;4975697;28;98378;-48
2022/02/24 05:29:27;;;;;;;2.90;2.10;;;25.30;53.20;;;;;;4962346;28;96262;-48
2022/02/24 05:31:59;;;;;;;4.30;2.40;;;25.30;53.20;;;;;;4967330;28;101520;-46
2022/02/24 05:34:30;;;;;;;3.22;2.20;;;25.20;53.20;;;;;;4981626;28;96026;-46
2022/02/24 05:37:00;;;;;;;;;;;25.20;53.20;;;;;;4978767;28;96477;-46
2022/02/24 05:39:31;;;;;;;3.93;2.27;;;25.20;54.00;;;;;;4962806;28;97406;-46
2022/02/24 05:42:02;;;;;;;3.67;2.55;;;25.20;53.20;;;;;;4973167;28;95848;-45
2022/02/24 05:44:36;;;;;;;5.10;2.80;;;25.20;53.50;;;;;;4970525;28;95891;-45
2022/02/24 05:47:06;;;;;;;;;;;25.30;53.60;;;;;;4966040;28;97373;-46
2022/02/24 05:49:37;;;;;;;6.35;2.45;;;25.30;53.30;;;;;;4975516;28;95915;-46
2022/02/24 05:52:07;;;;;;;3.67;2.40;;;25.30;53.30;;;;;;4974741;28;95796;-46
2022/02/24 05:54:38;;;;;;;4.53;2.37;;;25.40;53.50;;;;;;4976259;28;95465;-45
2022/02/24 05:57:09;;;;;;;4.43;2.60;;;25.40;53.20;;;;;;4981608;28;96762;-45
2022/02/24 05:59:40;;;;;;;6.95;3.08;;;25.40;53.10;;;;;;4977844;28;96482;-45
2022/02/24 06:02:10;;;;;;;4.22;2.15;;;25.40;53.10;;;;;;4969814;28;95973;-46
2022/02/24 06:04:42;;;;;;;5.15;2.75;;;25.30;52.90;;;;;;4977147;28;95753;-46
2022/02/24 06:07:15;;;;;;;4.60;2.47;;;25.30;52.80;;;;;;4976125;28;96128;-43
2022/02/24 06:09:47;;;;;;;5.03;2.53;;;25.30;52.80;;;;;;4980004;28;96667;-40
2022/02/24 06:12:18;;;;;;;3.75;2.50;;;25.30;53.00;;;;;;4978706;28;96120;-41
2022/02/24 06:14:48;;;;;;;4.70;2.45;;;25.30;52.60;;;;;;4976731;28;98371;-40
2022/02/24 06:17:19;;;;;;;3.13;2.22;;;25.30;52.70;;;;;;4971193;28;97833;-41
2022/02/24 06:19:50;;;;;;;3.88;2.55;;;25.30;52.60;;;;;;4977910;28;96022;-41
2022/02/24 06:22:20;;;;;;;4.45;2.10;;;25.30;52.60;;;;;;4981702;28;96361;-40
2022/02/24 06:24:51;;;;;;;3.17;2.08;;;25.30;52.30;;;;;;4977630;28;95734;-40
2022/02/24 06:27:22;;;;;;;4.38;2.47;;;25.30;52.30;;;;;;4977359;28;96835;-40
2022/02/24 06:29:53;;;;;;;3.95;2.08;;;25.30;52.40;;;;;;4978265;28;95478;-40
2022/02/24 06:32:24;;;;;;;4.85;2.00;;;25.20;52.20;;;;;;4964988;28;96003;-40
2022/02/24 06:34:54;;;;;;;;;;;25.20;52.10;;;;;;4973298;28;96107;-40
2022/02/24 06:37:24;;;;;;;4.88;2.05;;;25.30;52.90;;;;;;4980076;28;96604;-39
2022/02/24 06:39:56;;;;;;;3.28;2.22;;;25.30;52.50;;;;;;4971457;28;95877;-39
2022/02/24 06:42:27;;;;;;;4.95;2.28;;;25.40;52.50;;;;;;4976800;28;95679;-40
2022/02/24 06:45:03;;;;;;;3.45;2.05;;;25.50;51.60;;;;;;4964921;28;96473;-40
2022/02/24 06:47:35;;;;;;;3.53;2.03;;;25.40;51.40;;;;;;4975636;28;96085;-40
2022/02/24 06:50:06;;;;;;;3.85;2.25;;;25.40;51.30;;;;;;4975476;28;96374;-40
2022/02/24 06:52:37;;;;;;;3.72;2.60;;;25.30;51.10;;;;;;4970942;28;95654;-40
2022/02/24 06:55:10;;;;;;;6.15;2.60;;;25.30;51.30;;;;;;4973177;28;95988;-40
2022/02/24 06:57:45;;;;;;;4.82;2.22;;;25.30;51.40;;;;;;4975797;28;97263;-40
2022/02/24 07:00:16;;;;;;;5.07;2.17;;;25.20;51.50;;;;;;4977113;28;96265;-41
2022/02/24 07:02:49;;;;;;;5.75;2.58;;;25.20;51.50;;;;;;4976509;28;95875;-41
2022/02/24 07:05:22;;;;;;;4.45;2.67;;;25.20;51.50;;;;;;4969640;28;95989;-40
2022/02/24 07:07:53;;;;;;;3.55;2.35;;;25.20;51.40;;;;;;4968095;28;96774;-40
2022/02/24 07:10:25;;;;;;;4.45;2.53;;;25.10;51.40;;;;;;4973172;28;95845;-40
2022/02/24 07:12:55;;;;;;;3.33;2.30;;;25.00;51.50;;;;;;4972462;28;96687;-40
2022/02/24 07:15:26;;;;;;;4.85;2.85;;;25.00;51.60;;;;;;4973246;28;95832;-40
2022/02/24 07:17:58;;;;;;;5.28;2.60;;;25.00;52.00;;;;;;4976472;28;104410;-40
2022/02/24 07:20:29;;;;;;;5.60;2.90;;;24.90;52.10;;;;;;4977917;28;97118;-40
2022/02/24 07:23:02;;;;;;;5.67;3.00;;;24.90;52.10;;;;;;4973175;28;95538;-40
2022/02/24 07:25:33;;;;;;;7.07;3.45;;;24.90;52.40;;;;;;4972282;28;96080;-40
2022/02/24 07:28:03;;;;;;;5.63;2.80;;;24.90;52.80;;;;;;4971254;28;96452;-40
2022/02/24 07:30:40;;;;;;;5.47;3.00;;;24.90;51.20;;;;;;4972271;28;95940;-40
2022/02/24 07:33:11;;;;;;;;;;;24.90;52.80;;;;;;4979746;28;95880;-40
2022/02/24 07:35:41;;;;;;;6.60;3.10;;;24.90;52.80;;;;;;4976486;28;95704;-40
2022/02/24 07:38:12;;;;;;;3.30;2.53;;;24.90;52.90;;;;;;4976640;28;97048;-39
2022/02/24 07:40:44;;;;;;;4.78;2.80;;;24.90;52.80;;;;;;4973588;28;96752;-40
2022/02/24 07:43:15;;;;;;;4.93;2.80;;;24.90;52.80;;;;;;4976431;28;95742;-40
2022/02/24 07:45:45;;;;;;;5.75;2.83;;;24.90;52.80;;;;;;4967463;28;95613;-40
2022/02/24 07:48:16;;;;;;;4.43;2.37;;;24.90;52.80;;;;;;4980660;28;96085;-40
2022/02/24 07:50:47;;;;;;;4.60;2.70;;;24.90;52.80;;;;;;4981651;28;96192;-40
2022/02/24 07:53:18;;;;;;;2.80;2.47;;;24.90;53.10;;;;;;4976847;28;96200;-39
2022/02/24 07:55:49;;;;;;;5.10;3.05;;;24.80;53.80;;;;;;4981568;28;95920;-40
2022/02/24 07:58:20;;;;;;;5.97;3.03;;;24.80;54.40;;;;;;4960551;28;97037;-46
2022/02/24 08:00:50;;;;;;;6.45;3.35;;;24.80;54.90;;;;;;4952583;28;99054;-46
2022/02/24 08:03:21;;;;;;;6.05;3.25;;;24.90;55.60;;;;;;4976462;28;96484;-45
2022/02/24 08:05:54;;;;;;;5.63;3.22;;;24.90;55.80;;;;;;4972136;28;95887;-46
2022/02/24 08:08:27;;;;;;;4.18;3.05;;;24.90;56.10;;;;;;4972462;28;96423;-45
2022/02/24 08:10:58;;;;;;;5.60;2.50;;;24.90;56.90;;;;;;4976486;28;95852;-44
2022/02/24 08:13:29;;;;;;;4.63;2.78;;;24.90;56.10;;;;;;4960919;28;96043;-46
2022/02/24 08:16:00;;;;;;;5.07;2.40;;;24.90;56.10;;;;;;4966761;28;96028;-45
2022/02/24 08:18:32;;;;;;;6.07;3.17;;;24.90;56.10;;;;;;4978331;28;96424;-45
2022/02/24 08:21:03;;;;;;;5.03;2.63;;;24.90;56.10;;;;;;4978286;28;95985;-46
2022/02/24 08:23:33;;;;;;;6.13;2.85;;;24.90;56.10;;;;;;4972089;28;95630;-45
2022/02/24 08:26:04;;;;;;;9.35;3.90;;;24.50;57.70;;;;;;4977677;28;95910;-47
2022/02/24 08:28:34;;;;;;;15.70;4.75;;;24.00;60.50;;;;;;4979493;28;96216;-45
2022/02/24 08:31:04;;;;;;;14.55;4.10;;;23.70;63.10;;;;;;4968275;28;97893;-45
2022/02/24 08:33:36;;;;;;;11.32;4.15;;;23.60;64.40;;;;;;4976334;28;96545;-45
2022/02/24 08:36:06;;;;;;;15.93;4.30;;;23.50;64.90;;;;;;4981493;28;95683;-45
2022/02/24 08:38:36;;;;;;;11.57;4.43;;;23.50;65.20;;;;;;4974568;28;96689;-45
2022/02/24 08:41:27;;;;;;;11.50;3.95;;;23.40;65.40;;;;;;4974588;28;95916;-45
2022/02/24 08:43:58;;;;;;;12.63;4.32;;;23.30;65.70;;;;;;4979961;28;95366;-45
2022/02/24 08:46:29;;;;;;;;;;;23.30;65.70;;;;;;4967334;28;95431;-45
2022/02/24 08:49:00;;;;;;;17.05;5.03;;;23.20;66.00;;;;;;4975000;28;96396;-45
2022/02/24 08:51:30;;;;;;;15.60;4.38;;;23.10;66.30;;;;;;4975448;28;96060;-45
2022/02/24 08:54:01;;;;;;;14.52;5.10;;;22.90;66.60;;;;;;4973983;28;95693;-46
2022/02/24 08:56:34;;;;;;;11.85;4.63;;;22.80;67.20;;;;;;4972512;28;96895;-45
2022/02/24 08:59:04;;;;;;;12.68;3.63;;;22.70;67.20;;;;;;4972794;28;97167;-45
2022/02/24 09:01:34;;;;;;;12.05;4.28;;;22.70;67.10;;;;;;4970309;28;96142;-46
2022/02/24 09:04:06;;;;;;;11.40;4.75;;;22.50;67.20;;;;;;4977572;28;95664;-45
2022/02/24 09:06:37;;;;;;;;;;;22.40;66.90;;;;;;4968008;28;95850;-45
2022/02/24 09:09:07;;;;;;;5.82;3.08;;;22.20;66.30;;;;;;4972590;28;96700;-45
2022/02/24 09:11:39;;;;;;;12.15;4.50;;;22.00;66.40;;;;;;4970866;28;95717;-45
2022/02/24 09:14:09;;;;;;;14.77;3.60;;;21.90;66.60;;;;;;4979730;28;96200;-45
2022/02/24 09:16:43;;;;;;;14.45;3.90;;;21.80;66.80;;;;;;4965358;28;96298;-45
2022/02/24 09:19:14;;;;;;;15.23;3.67;;;21.80;66.80;;;;;;4970056;28;96208;-45
2022/02/24 09:21:46;;;;;;;15.20;3.40;;;21.70;66.90;;;;;;4967587;28;96241;-45
2022/02/24 09:24:16;;;;;;;;;;;21.70;67.10;;;;;;4969366;28;95851;-44
2022/02/24 09:26:48;;;;;;;11.05;2.65;;;21.60;67.00;;;;;;4972361;28;95926;-45
2022/02/24 09:29:17;;;;;;;10.95;3.40;;;21.50;67.40;;;;;;4972466;28;97031;-45
2022/02/24 09:31:47;;;;;;;15.30;3.92;;;21.50;67.70;;;;;;4964579;28;96500;-45
2022/02/24 09:34:17;;;;;;;13.93;3.55;;;21.40;67.70;;;;;;4966613;28;95930;-45
2022/02/24 09:36:48;;;;;;;15.27;3.55;;;21.40;68.00;;;;;;4973934;28;96867;-45
2022/02/24 09:39:19;;;;;;;22.20;4.43;;;21.40;68.00;;;;;;4972092;28;96130;-45
2022/02/24 09:41:51;;;;;;;;;;;21.40;68.00;;;;;;4978019;28;95962;-45
2022/02/24 09:44:27;;;;;;;18.02;3.95;;;21.50;68.10;;;;;;4979414;28;95625;-45
2022/02/24 09:47:00;;;;;;;12.98;3.10;;;21.50;67.90;;;;;;4971485;28;98448;-45
2022/02/24 09:49:34;;;;;;;10.05;3.72;;;21.60;67.90;;;;;;4976149;28;96055;-45
2022/02/24 09:52:04;;;;;;;10.60;3.40;;;21.60;67.90;;;;;;4971702;28;96508;-45
2022/02/24 09:54:35;;;;;;;11.27;3.50;;;21.50;68.10;;;;;;4975396;28;96290;-44
2022/02/24 09:57:08;;;;;;;9.10;3.38;;;21.50;68.40;;;;;;4967439;28;96481;-46
2022/02/24 09:59:40;;;;;;;10.80;2.95;;;21.50;69.30;;;;;;4969737;28;96770;-44
2022/02/24 10:02:15;;;;;;;9.88;2.88;;;21.50;68.70;;;;;;4964263;28;95926;-43
2022/02/24 10:05:12;;;;;;;16.30;3.53;;;21.40;69.00;;;;;;4970883;28;96303;-44
2022/02/24 10:07:44;;;;;;;12.07;3.30;;;21.30;69.60;;;;;;4971444;28;95855;-44
2022/02/24 10:10:33;;;;;;;11.02;3.58;;;21.30;69.60;;;;;;4970628;28;96815;-45
2022/02/24 10:13:12;;;;;;;12.30;4.43;;;21.30;69.80;;;;;;4977532;28;97623;-45
2022/02/24 10:16:01;;;;;;;12.30;3.70;;;21.30;70.10;;;;;;4966797;28;95887;-45
2022/02/24 10:18:37;;;;;;;13.32;3.63;;;21.20;70.60;;;;;;4966729;28;96204;-45
2022/02/24 10:21:18;;;;;;;14.35;3.95;;;21.10;70.70;;;;;;4978914;28;97056;-46
2022/02/24 10:23:48;;;;;;;11.68;3.15;;;21.10;71.30;;;;;;4978545;28;96207;-45
2022/02/24 10:26:20;;;;;;;14.40;3.42;;;21.20;71.20;;;;;;4981951;28;95908;-45
2022/02/24 10:28:55;;;;;;;14.60;3.15;;;21.20;71.10;;;;;;4976806;28;96157;-45
2022/02/24 10:31:28;;;;;;;8.85;2.85;;;21.20;71.00;;;;;;4973217;28;98752;-45
2022/02/24 10:34:08;;;;;;;11.18;3.10;;;21.30;70.90;;;;;;4971455;28;96115;-45
2022/02/24 10:36:38;;;;;;;14.40;3.72;;;21.30;70.90;;;;;;4979423;28;95468;-45
2022/02/24 10:39:21;;;;;;;8.90;3.30;;;21.20;71.00;;;;;;4976579;28;95986;-45
2022/02/24 10:42:03;;;;;;;15.43;3.67;;;21.10;71.40;;;;;;4974256;28;96815;-45
2022/02/24 10:44:35;;;;;;;11.93;3.65;;;21.10;71.70;;;;;;4976466;28;96252;-45
2022/02/24 10:47:07;;;;;;;11.48;3.20;;;21.10;71.60;;;;;;4972059;28;97125;-45
2022/02/24 10:49:39;;;;;;;13.27;3.50;;;21.20;71.70;;;;;;4976603;28;96095;-46
2022/02/24 10:52:22;;;;;;;11.60;3.42;;;21.10;71.90;;;;;;4978572;28;96425;-45
2022/02/24 10:55:06;;;;;;;13.48;3.28;;;21.10;71.90;;;;;;4974353;28;96427;-45
2022/02/24 10:57:37;;;;;;;10.25;3.05;;;21.10;71.80;;;;;;4963609;28;96180;-45
2022/02/24 11:00:10;;;;;;;14.45;4.53;;;21.10;71.90;;;;;;4979443;28;96749;-44
2022/02/24 11:02:42;;;;;;;14.18;3.72;;;21.10;72.00;;;;;;4971957;28;97668;-45
2022/02/24 11:05:14;;;;;;;10.82;4.05;;;21.00;72.10;;;;;;4980458;28;97110;-45
2022/02/24 11:07:46;;;;;;;9.10;3.03;;;21.00;72.30;;;;;;4981108;28;95409;-45
2022/02/24 11:10:20;;;;;;;14.13;3.42;;;21.00;72.60;;;;;;4982043;28;96005;-44
2022/02/24 11:12:51;;;;;;;13.48;3.47;;;20.90;72.70;;;;;;4982551;28;96243;-45
2022/02/24 11:15:21;;;;;;;13.80;2.97;;;20.90;72.90;;;;;;4978460;28;98306;-44
2022/02/24 11:17:53;;;;;;;18.85;3.50;;;20.90;73.10;;;;;;4979147;28;95299;-44
2022/02/24 11:20:25;;;;;;;14.50;3.33;;;20.80;73.50;;;;;;4978957;28;96211;-44
2022/02/24 11:22:56;;;;;;;9.00;2.88;;;20.70;73.60;;;;;;4982493;28;96984;-45
2022/02/24 11:25:33;;;;;;;10.52;3.33;;;20.80;73.60;;;;;;4980229;28;96066;-45
2022/02/24 11:28:05;;;;;;;13.30;3.10;;;20.80;73.60;;;;;;4982806;28;96184;-45
2022/02/24 11:30:37;;;;;;;15.70;3.58;;;20.80;72.00;;;;;;4972552;28;96049;-45
2022/02/24 11:33:07;;;;;;;12.60;3.10;;;20.80;73.70;;;;;;4963385;28;96481;-44
2022/02/24 11:35:37;;;;;;;9.10;2.97;;;20.70;73.70;;;;;;4976089;28;96138;-46
2022/02/24 11:38:11;;;;;;;13.77;2.90;;;20.70;74.00;;;;;;4979970;28;95780;-44
2022/02/24 11:40:42;;;;;;;8.65;3.13;;;20.60;74.10;;;;;;4980668;28;96189;-44
2022/02/24 11:43:25;;;;;;;18.40;3.70;;;20.60;74.40;;;;;;4982311;28;98186;-44
2022/02/24 11:45:57;;;;;;;9.57;3.20;;;20.60;74.50;;;;;;4973997;28;97794;-45
2022/02/24 11:48:37;;;;;;;12.30;3.33;;;20.60;74.40;;;;;;4979892;28;96653;-45
2022/02/24 11:51:17;;;;;;;18.83;4.30;;;20.50;74.60;;;;;;4978783;28;96073;-44
2022/02/24 11:53:50;;;;;;;11.55;2.70;;;20.50;74.70;;;;;;4977601;28;96729;-44
2022/02/24 11:56:23;;;;;;;15.25;3.80;;;20.50;74.80;;;;;;4979520;28;96530;-44
2022/02/24 11:58:59;;;;;;;12.60;3.33;;;20.50;75.00;;;;;;4980667;28;96605;-44
2022/02/24 12:01:47;;;;;;;8.93;2.95;;;20.50;75.00;;;;;;4975109;28;95899;-46
2022/02/24 12:04:28;;;;;;;12.35;3.20;;;20.50;74.80;;;;;;4981150;28;96172;-44
2022/02/24 12:07:13;;;;;;;14.88;3.40;;;20.50;74.90;;;;;;4981968;28;95823;-45
2022/02/24 12:09:46;;;;;;;12.23;2.97;;;20.50;75.00;;;;;;4976649;28;96395;-45
2022/02/24 12:12:24;;;;;;;14.88;3.22;;;20.50;74.90;;;;;;4981371;28;95898;-45
2022/02/24 12:14:56;;;;;;;9.57;2.60;;;20.50;75.00;;;;;;4980064;28;98103;-45
2022/02/24 12:17:44;;;;;;;13.40;2.70;;;20.40;75.30;;;;;;4969454;28;97548;-45
2022/02/24 12:20:26;;;;;;;13.85;3.47;;;20.40;75.50;;;;;;4974854;28;95671;-45
2022/02/24 12:22:55;;;;;;;;;;;20.30;75.50;;;;;;4977394;28;95803;-45
2022/02/24 12:25:29;;;;;;;14.55;3.30;;;20.30;75.80;;;;;;4975249;28;96026;-45
2022/02/24 12:28:04;;;;;;;9.25;2.63;;;20.30;75.60;;;;;;4982349;28;96329;-45
2022/02/24 12:30:38;;;;;;;14.77;3.55;;;20.30;74.10;;;;;;4971609;28;98051;-45
2022/02/24 12:33:18;;;;;;;13.93;2.78;;;20.30;75.90;;;;;;4972862;28;95799;-45
2022/02/24 12:35:51;;;;;;;14.27;3.65;;;20.20;76.10;;;;;;4968937;28;96144;-45
2022/02/24 12:38:23;;;;;;;12.85;3.03;;;20.30;75.80;;;;;;4980079;28;96344;-45
2022/02/24 12:40:54;;;;;;;16.98;2.90;;;20.30;75.60;;;;;;4978763;28;95844;-45
2022/02/24 12:43:27;;;;;;;9.27;2.88;;;20.30;75.70;;;;;;4972296;28;96260;-46
2022/02/24 12:45:57;;;;;;;17.60;3.63;;;20.30;75.70;;;;;;4972604;28;95973;-45
2022/02/24 12:48:34;;;;;;;10.63;3.25;;;20.30;75.60;;;;;;4978005;28;97502;-47
2022/02/24 12:51:07;;;;;;;11.23;2.92;;;20.40;75.80;;;;;;4975604;28;95890;-44
2022/02/24 12:53:38;;;;;;;9.13;2.53;;;20.40;76.00;;;;;;4973881;28;95359;-45
2022/02/24 12:56:09;;;;;;;13.82;2.42;;;20.30;76.20;;;;;;4973622;28;96082;-46
2022/02/24 12:58:45;;;;;;;9.25;2.63;;;20.30;76.30;;;;;;4970085;28;98983;-45
2022/02/24 13:01:17;;;;;;;12.70;3.00;;;20.30;76.60;;;;;;4974320;28;95957;-46
2022/02/24 13:03:58;;;;;;;10.20;3.08;;;20.40;76.50;;;;;;4970381;28;96025;-45
2022/02/24 13:06:35;;;;;;;9.07;2.75;;;20.60;75.90;;;;;;4974146;28;95962;-45
2022/02/24 13:12:07;;;;;;;12.45;2.53;;;20.70;75.70;;;;;;4970715;28;95744;-45
2022/02/24 13:14:38;;;;;;;8.93;2.30;;;20.80;76.10;;;;;;4980665;28;95314;-45
2022/02/24 13:17:09;;;;;;;10.10;2.67;;;21.00;75.00;;;;;;4963144;28;98782;-45
2022/02/24 13:19:40;;;;;;;10.63;2.25;;;21.10;74.50;;;;;;4963315;28;95844;-45